Time;durP1;ratioP1;P1;durP2;ratioP2;P2;SDS_P1;SDS_P2;PMS_P1;PMS_P2;Temp;Humidity;BMP_temperature;BMP_pressure;BME280_temperature;BME280_humidity;BME280_pressure;Samples;Min_cycle;Max_cycle;Signal;HPM_P1;HPM_P2
2022/10/08 00:00:54;;;;;;;9.65;2.65;;;;;;;13.72;73.01;151101.73;1779339;80;21391;-62
2022/10/08 00:03:23;;;;;;;19.07;3.40;;;;;;;13.69;73.30;151092.61;1778690;79;21565;-62
2022/10/08 00:05:58;;;;;;;7.60;2.90;;;;;;;13.68;73.66;151091.34;1779827;80;20996;-62
2022/10/08 00:08:25;;;;;;;13.10;2.75;;;;;;;13.69;73.85;151092.61;1774947;80;21039;-62
2022/10/08 00:10:59;;;;;;;12.93;2.83;;;;;;;13.70;74.05;151096.53;1773602;80;21394;-62
2022/10/08 00:13:28;;;;;;;8.03;2.60;;;;;;;13.72;74.22;151100.45;1772821;80;21206;-62
2022/10/08 00:15:55;;;;;;;12.93;2.40;;;;;;;13.73;74.34;151104.34;1773891;80;21612;-62
2022/10/08 00:18:24;;;;;;;5.85;1.92;;;;;;;13.75;74.46;151109.53;1752236;80;21085;-62
2022/10/08 00:20:51;;;;;;;10.08;2.90;;;;;;;13.78;74.38;151114.72;1773660;80;21008;-62
2022/10/08 00:23:18;;;;;;;17.90;2.92;;;;;;;13.78;74.42;151116.06;1773058;79;21058;-62
2022/10/08 00:25:44;;;;;;;12.55;2.90;;;;;;;13.80;74.41;151121.25;1772879;80;21488;-62
2022/10/08 00:28:13;;;;;;;12.18;2.90;;;;;;;13.81;74.34;151122.53;1772731;80;21108;-62
2022/10/08 00:30:40;;;;;;;14.13;2.70;;;;;;;13.78;74.16;151116.06;1772891;80;21623;-62
2022/10/08 00:33:08;;;;;;;9.48;2.80;;;;;;;13.73;73.88;151104.34;1733450;80;21035;-62
2022/10/08 00:35:39;;;;;;;12.98;2.58;;;;;;;13.65;73.64;151083.55;1700726;83;21556;-62
2022/10/08 00:38:06;;;;;;;7.15;2.98;;;;;;;13.55;73.90;151058.83;1722528;82;21282;-62
2022/10/08 00:40:42;;;;;;;10.32;2.98;;;;;;;13.46;74.28;151036.72;1724626;83;21055;-62
2022/10/08 00:43:15;;;;;;;12.37;2.55;;;;;;;13.42;74.62;151024.95;1721923;83;21619;-61
2022/10/08 00:45:43;;;;;;;11.20;2.90;;;;;;;13.39;74.65;151018.48;1722412;82;21572;-62
2022/10/08 00:48:14;;;;;;;7.90;2.65;;;;;;;13.38;74.68;151015.89;1724731;82;21023;-61
2022/10/08 00:50:42;;;;;;;16.57;3.08;;;;;;;13.36;74.72;151010.64;1722333;81;21078;-62
2022/10/08 00:53:09;;;;;;;9.38;2.40;;;;;;;13.35;74.80;151008.03;1725066;83;20963;-62
2022/10/08 00:55:39;;;;;;;9.98;3.00;;;;;;;13.32;74.86;151000.25;1722545;83;21091;-62
2022/10/08 00:58:16;;;;;;;11.73;3.08;;;;;;;13.28;74.90;150989.86;1724984;81;21019;-62
2022/10/08 01:00:43;;;;;;;6.33;2.80;;;;;;;13.25;75.06;150982.06;1700332;83;21585;-62
2022/10/08 01:03:10;;;;;;;11.25;4.05;;;;;;;13.21;75.08;150971.66;1722325;83;21891;-62
2022/10/08 01:05:51;;;;;;;12.37;3.65;;;;;;;13.17;75.16;150963.88;1724631;83;21040;-63
2022/10/08 01:08:39;;;;;;;11.43;3.60;;;;;;;13.14;75.49;150954.75;1721283;81;21011;-62
2022/10/08 01:11:40;;;;;;;9.73;3.45;;;;;;;13.14;75.81;150954.75;1771684;80;21012;-62
2022/10/08 01:14:38;;;;;;;5.95;3.12;;;;;;;13.14;75.85;150956.03;1772026;80;21025;-61
2022/10/08 01:17:14;;;;;;;7.45;2.90;;;;;;;13.15;75.88;150958.67;1772121;80;21493;-62
2022/10/08 01:20:06;;;;;;;6.33;2.70;;;;;;;13.15;75.86;150957.34;1771614;80;21076;-62
2022/10/08 01:23:12;;;;;;;10.18;2.90;;;;;;;13.12;75.89;150950.84;1771824;80;21036;-62
2022/10/08 01:25:54;;;;;;;6.92;3.20;;;;;;;13.07;76.13;150937.84;1770096;80;21076;-62
2022/10/08 01:28:44;;;;;;;8.10;3.15;;;;;;;13.07;76.15;150937.84;1769267;81;21049;-63
2022/10/08 01:31:25;;;;;;;8.00;2.80;;;;;;;13.08;76.21;150940.44;1769450;81;21861;-62
2022/10/08 01:34:09;;;;;;;9.35;2.83;;;;;;;13.09;76.55;150943.05;1770131;80;20992;-63
2022/10/08 01:36:42;;;;;;;10.80;3.85;;;;;;;13.11;76.54;150946.97;1770944;81;21035;-69
2022/10/08 01:39:12;;;;;;;13.65;3.72;;;;;;;13.13;76.34;150953.44;1771588;80;20979;-69
2022/10/08 01:41:41;;;;;;;6.12;2.95;;;;;;;13.14;76.34;150954.75;1770435;81;21019;-62
2022/10/08 01:44:12;;;;;;;7.62;3.00;;;;;;;13.13;76.42;150952.16;1771066;81;21280;-62
2022/10/08 01:46:41;;;;;;;7.53;2.65;;;;;;;13.12;76.42;150950.84;1770849;81;21039;-62
2022/10/08 01:49:12;;;;;;;6.80;2.83;;;;;;;13.10;76.80;150945.64;1770879;81;21106;-69
2022/10/08 01:51:44;;;;;;;9.20;3.40;;;;;;;13.14;76.86;150956.03;1770638;81;21114;-68
2022/10/08 01:54:14;;;;;;;10.23;3.25;;;;;;;13.14;76.72;150956.03;1770370;80;21054;-68
2022/10/08 01:56:40;;;;;;;8.18;3.08;;;;;;;13.14;76.86;150954.75;1770056;81;21151;-68
2022/10/08 01:59:18;;;;;;;7.47;3.40;;;;;;;13.15;76.80;150957.34;1770127;81;21477;-69
2022/10/08 02:02:02;;;;;;;6.83;3.30;;;;;;;13.13;76.85;150953.44;1770641;80;21547;-68
2022/10/08 02:04:33;;;;;;;8.03;2.72;;;;;;;13.12;77.06;150950.84;1770715;79;20971;-69
2022/10/08 02:07:13;;;;;;;6.67;3.08;;;;;;;13.15;77.14;150957.34;1766640;81;21029;-68
2022/10/08 02:09:43;;;;;;;6.33;2.75;;;;;;;13.16;77.13;150961.28;1740236;82;21077;-69
2022/10/08 02:12:10;;;;;;;8.95;2.90;;;;;;;13.17;77.03;150963.88;1740107;82;21027;-68
2022/10/08 02:14:42;;;;;;;6.58;3.50;;;;;;;13.20;77.01;150969.06;1740368;81;21923;-69
2022/10/08 02:17:42;;;;;;;8.70;4.53;;;;;;;13.20;76.80;150969.06;1740873;81;20930;-69
2022/10/08 02:20:50;;;;;;;9.25;4.00;;;;;;;13.17;76.69;150963.88;1740502;82;21057;-68
2022/10/08 02:23:28;;;;;;;8.90;3.90;;;;;;;13.14;76.72;150956.03;1740382;82;21221;-67
2022/10/08 02:26:01;;;;;;;8.43;3.12;;;;;;;13.09;76.76;150943.05;1730002;82;21563;-68
2022/10/08 02:28:37;;;;;;;5.55;3.25;;;;;;;13.07;76.91;150937.84;1722226;83;21057;-68
2022/10/08 02:31:30;;;;;;;7.53;3.58;;;;;;;13.07;76.92;150936.56;1722610;83;21539;-68
2022/10/08 02:34:12;;;;;;;10.45;3.95;;;;;;;13.07;76.86;150936.56;1693346;84;21047;-68
2022/10/08 02:36:43;;;;;;;14.07;3.50;;;;;;;13.03;76.91;150927.45;1659573;85;21446;-69
2022/10/08 02:39:11;;;;;;;8.28;3.47;;;;;;;12.99;76.93;150918.34;1659677;86;21007;-69
2022/10/08 02:41:50;;;;;;;12.93;3.30;;;;;;;12.95;76.96;150907.95;1659797;85;21521;-68
2022/10/08 02:44:28;;;;;;;8.23;2.95;;;;;;;12.89;77.05;150893.64;1659738;85;21059;-68
2022/10/08 02:46:56;;;;;;;14.78;3.40;;;;;;;12.84;77.17;150879.38;1702990;82;21566;-69
2022/10/08 02:49:28;;;;;;;6.80;2.70;;;;;;;12.77;77.38;150862.47;1659859;86;21274;-69
2022/10/08 02:51:55;;;;;;;11.18;3.10;;;;;;;12.71;77.65;150848.16;1659835;86;21033;-69
2022/10/08 02:54:22;;;;;;;7.35;3.87;;;;;;;12.66;77.81;150835.19;1659885;85;21429;-69
2022/10/08 02:57:02;;;;;;;10.40;3.30;;;;;;;12.61;78.18;150822.19;1659716;86;20972;-68
2022/10/08 02:59:28;;;;;;;7.70;3.20;;;;;;;12.56;78.48;150810.48;1659556;86;21150;-68
2022/10/08 03:01:59;;;;;;;7.20;3.08;;;;;;;12.54;78.78;150805.28;1703512;84;21041;-69
2022/10/08 03:04:43;;;;;;;10.15;3.37;;;;;;;12.52;79.15;150800.09;1659648;85;21051;-69
2022/10/08 03:07:12;;;;;;;6.87;3.37;;;;;;;12.53;79.41;150801.38;1673621;82;21039;-68
2022/10/08 03:09:41;;;;;;;16.65;3.15;;;;;;;12.54;79.57;150805.28;1731431;82;21080;-69
2022/10/08 03:12:08;;;;;;;7.10;3.22;;;;;;;12.51;79.68;150797.50;1731978;81;21486;-68
2022/10/08 03:14:38;;;;;;;7.90;2.98;;;;;;;12.48;79.83;150789.66;1731619;82;21233;-69
2022/10/08 03:17:10;;;;;;;8.33;3.25;;;;;;;12.45;80.05;150781.88;1731868;82;21032;-69
2022/10/08 03:19:37;;;;;;;7.42;3.67;;;;;;;12.44;80.31;150779.27;1731620;81;21048;-69
2022/10/08 03:22:04;;;;;;;14.30;3.27;;;;;;;12.44;80.54;150779.27;1731435;82;21099;-69
2022/10/08 03:24:31;;;;;;;9.45;3.22;;;;;;;12.43;80.72;150776.67;1709169;82;21505;-68
2022/10/08 03:26:58;;;;;;;5.65;3.08;;;;;;;12.44;80.96;150779.27;1777436;79;21202;-68
2022/10/08 03:29:25;;;;;;;13.93;3.30;;;;;;;12.44;81.10;150779.27;1775098;80;21258;-68
2022/10/08 03:31:52;;;;;;;6.42;3.12;;;;;;;12.44;81.19;150779.27;1757821;80;21453;-68
2022/10/08 03:34:19;;;;;;;12.53;4.30;;;;;;;12.43;81.30;150776.67;1739903;81;21109;-68
2022/10/08 03:36:46;;;;;;;9.08;3.22;;;;;;;12.42;81.41;150774.08;1739905;81;21035;-69
2022/10/08 03:39:12;;;;;;;6.45;3.12;;;;;;;12.42;81.59;150774.08;1739630;81;21827;-69
2022/10/08 03:41:39;;;;;;;7.50;3.27;;;;;;;12.43;81.81;150776.67;1739498;81;21058;-68
2022/10/08 03:44:08;;;;;;;6.95;3.83;;;;;;;12.46;81.81;150784.47;1739349;81;21511;-68
2022/10/08 03:46:35;;;;;;;12.70;3.80;;;;;;;12.49;81.69;150792.31;1739672;82;21527;-68
2022/10/08 03:49:02;;;;;;;10.00;4.00;;;;;;;12.52;81.55;150798.77;1739873;82;21053;-68
2022/10/08 03:51:28;;;;;;;12.10;3.92;;;;;;;12.51;81.47;150797.50;1739728;82;21285;-68
2022/10/08 03:53:56;;;;;;;14.38;4.55;;;;;;;12.52;81.39;150800.09;1739944;81;21481;-68
2022/10/08 03:56:23;;;;;;;9.70;3.83;;;;;;;12.51;81.43;150797.50;1729361;82;21038;-62
2022/10/08 03:58:58;;;;;;;14.38;4.30;;;;;;;12.50;81.53;150793.58;1739886;81;21012;-63
2022/10/08 04:01:26;;;;;;;20.00;4.53;;;;;;;12.50;81.68;150793.58;1740140;81;21564;-62
2022/10/08 04:03:53;;;;;;;9.95;4.03;;;;;;;12.48;81.71;150788.39;1739949;82;21421;-64
2022/10/08 04:06:20;;;;;;;8.23;3.77;;;;;;;12.44;81.86;150779.27;1740136;82;21026;-62
2022/10/08 04:08:48;;;;;;;11.80;4.70;;;;;;;12.42;82.03;150775.41;1761491;81;21609;-63
2022/10/08 04:11:16;;;;;;;12.00;4.58;;;;;;;12.40;82.20;150768.89;1763698;81;21019;-63
2022/10/08 04:13:45;;;;;;;10.03;4.40;;;;;;;12.39;82.39;150766.30;1763581;80;21016;-63
2022/10/08 04:16:15;;;;;;;18.05;4.47;;;;;;;12.38;82.47;150763.69;1763722;80;21665;-62
2022/10/08 04:18:42;;;;;;;12.00;4.45;;;;;;;12.37;82.47;150762.38;1763659;80;21435;-61
2022/10/08 04:21:11;;;;;;;15.85;5.20;;;;;;;12.39;82.42;150766.30;1763492;80;21052;-61
2022/10/08 04:23:39;;;;;;;10.40;4.85;;;;;;;12.39;82.40;150767.61;1763766;81;21057;-62
2022/10/08 04:26:07;;;;;;;12.98;4.70;;;;;;;12.41;82.54;150771.48;1766411;80;20920;-61
2022/10/08 04:28:37;;;;;;;15.10;4.75;;;;;;;12.43;82.46;150776.67;1769669;80;20996;-62
2022/10/08 04:31:08;;;;;;;16.27;4.90;;;;;;;12.45;82.39;150781.88;1769442;80;20972;-62
2022/10/08 04:33:37;;;;;;;9.80;4.55;;;;;;;12.47;82.23;150787.06;1750916;80;21098;-62
2022/10/08 04:36:13;;;;;;;11.35;5.45;;;;;;;12.50;82.06;150793.58;1751116;81;21042;-61
2022/10/08 04:38:42;;;;;;;17.10;5.03;;;;;;;12.54;81.80;150803.97;1750964;80;20970;-62
2022/10/08 04:41:12;;;;;;;12.43;5.35;;;;;;;12.65;81.47;150831.25;1751125;80;21571;-62
2022/10/08 04:43:39;;;;;;;11.55;4.17;;;;;;;12.70;81.00;150844.25;1751318;80;21329;-63
2022/10/08 04:46:08;;;;;;;12.75;4.72;;;;;;;12.71;80.70;150846.84;1751284;80;21109;-63
2022/10/08 04:48:35;;;;;;;14.87;4.55;;;;;;;12.69;80.61;150841.64;1751012;81;21140;-63
2022/10/08 04:51:04;;;;;;;12.33;5.25;;;;;;;12.70;80.56;150844.25;1751018;81;21041;-63
2022/10/08 04:53:31;;;;;;;11.20;4.62;;;;;;;12.69;80.59;150841.64;1751419;81;21165;-63
2022/10/08 04:56:09;;;;;;;16.45;4.83;;;;;;;12.67;80.69;150836.45;1750910;80;21298;-63
2022/10/08 04:58:37;;;;;;;17.65;5.80;;;;;;;12.66;80.86;150833.84;1750738;80;21902;-62
2022/10/08 05:01:05;;;;;;;12.95;5.30;;;;;;;12.65;81.02;150831.25;1750916;80;21038;-62
2022/10/08 05:03:37;;;;;;;12.43;4.95;;;;;;;12.64;81.11;150829.98;1750830;80;21034;-62
2022/10/08 05:06:06;;;;;;;10.53;4.72;;;;;;;12.64;81.22;150829.98;1750910;80;21182;-61
2022/10/08 05:08:33;;;;;;;9.23;4.85;;;;;;;12.65;81.38;150832.58;1766142;80;21017;-61
2022/10/08 05:11:00;;;;;;;13.62;4.67;;;;;;;12.66;81.51;150833.84;1769056;80;21103;-63
2022/10/08 05:13:28;;;;;;;12.00;4.53;;;;;;;12.66;81.65;150833.84;1768493;81;21044;-63
2022/10/08 05:15:55;;;;;;;9.68;5.17;;;;;;;12.65;81.70;150832.58;1768726;80;20926;-70
2022/10/08 05:18:22;;;;;;;11.55;5.10;;;;;;;12.67;81.91;150836.45;1768265;80;21136;-69
2022/10/08 05:20:49;;;;;;;10.38;4.65;;;;;;;12.69;82.10;150841.64;1768626;80;21040;-69
2022/10/08 05:23:16;;;;;;;9.90;4.53;;;;;;;12.69;82.20;150842.97;1769175;81;20985;-69
2022/10/08 05:25:43;;;;;;;10.75;4.75;;;;;;;12.71;82.20;150846.84;1769128;80;21032;-69
2022/10/08 05:28:11;;;;;;;13.45;5.37;;;;;;;12.73;82.13;150852.08;1770742;80;21071;-69
2022/10/08 05:30:39;;;;;;;15.40;5.22;;;;;;;12.74;82.06;150855.95;1771712;80;21232;-69
2022/10/08 05:33:05;;;;;;;10.85;5.17;;;;;;;12.75;81.98;150857.28;1758722;80;21074;-69
2022/10/08 05:35:36;;;;;;;14.47;5.45;;;;;;;12.76;81.80;150859.88;1755792;80;21030;-69
2022/10/08 05:38:03;;;;;;;13.48;6.15;;;;;;;12.76;81.90;150859.88;1745862;81;21042;-69
2022/10/08 05:40:30;;;;;;;16.60;5.45;;;;;;;12.76;82.00;150859.88;1755866;80;21451;-69
2022/10/08 05:42:57;;;;;;;14.80;5.22;;;;;;;12.78;82.13;150863.75;1755766;81;21241;-69
2022/10/08 05:45:24;;;;;;;12.65;5.97;;;;;;;12.81;82.33;150871.53;1755636;80;21475;-69
2022/10/08 05:47:50;;;;;;;14.43;5.17;;;;;;;12.85;82.14;150881.97;1755822;80;21082;-69
2022/10/08 05:50:17;;;;;;;9.98;4.62;;;;;;;12.84;81.99;150879.38;1755610;80;21688;-69
2022/10/08 05:52:44;;;;;;;11.18;4.62;;;;;;;12.83;81.83;150878.06;1755553;80;21093;-69
2022/10/08 05:55:11;;;;;;;12.58;4.87;;;;;;;12.83;81.66;150878.06;1755521;81;21796;-69
2022/10/08 05:57:38;;;;;;;10.40;5.10;;;;;;;12.84;81.69;150880.66;1755331;81;21025;-69
2022/10/08 06:00:06;;;;;;;14.95;5.20;;;;;;;12.85;81.83;150883.25;1755735;81;21112;-69
2022/10/08 06:02:35;;;;;;;13.50;4.60;;;;;;;12.86;81.92;150885.84;1755345;80;21048;-70
2022/10/08 06:05:02;;;;;;;11.70;5.17;;;;;;;12.87;82.01;150887.17;1755413;81;21495;-69
2022/10/08 06:07:29;;;;;;;13.70;5.17;;;;;;;12.90;82.13;150896.23;1760983;80;21301;-68
2022/10/08 06:09:57;;;;;;;14.80;4.42;;;;;;;12.96;82.14;150910.55;1771745;80;20977;-68
2022/10/08 06:12:24;;;;;;;7.85;4.42;;;;;;;13.02;81.86;150924.86;1771141;80;21056;-69
2022/10/08 06:14:52;;;;;;;11.28;5.00;;;;;;;13.08;81.71;150939.17;1771253;80;21458;-69
2022/10/08 06:17:21;;;;;;;13.55;5.12;;;;;;;13.14;81.53;150956.03;1771042;81;21068;-69
2022/10/08 06:19:48;;;;;;;11.03;4.50;;;;;;;13.21;81.39;150972.94;1771094;81;22098;-70
2022/10/08 06:22:14;;;;;;;8.75;4.70;;;;;;;13.29;81.33;150993.78;1771040;80;21015;-69
2022/10/08 06:24:41;;;;;;;11.97;4.83;;;;;;;13.39;80.91;151018.48;1771254;80;21060;-69
2022/10/08 06:27:09;;;;;;;9.50;4.37;;;;;;;13.49;80.63;151043.23;1771013;80;21525;-68
2022/10/08 06:29:36;;;;;;;8.95;4.40;;;;;;;13.56;80.21;151061.44;1768735;81;21063;-69
2022/10/08 06:32:02;;;;;;;12.98;5.30;;;;;;;13.63;80.04;151078.34;1762236;80;22166;-69
2022/10/08 06:34:30;;;;;;;10.63;4.78;;;;;;;13.69;79.79;151093.94;1750768;80;21061;-69
2022/10/08 06:36:56;;;;;;;14.25;4.72;;;;;;;13.73;79.46;151104.34;1751162;80;21084;-69
2022/10/08 06:39:23;;;;;;;12.68;4.90;;;;;;;13.78;79.45;151114.72;1751009;80;21462;-68
2022/10/08 06:41:50;;;;;;;16.60;4.90;;;;;;;13.82;79.34;151126.45;1751045;80;21501;-69
2022/10/08 06:44:18;;;;;;;9.88;5.00;;;;;;;13.91;79.33;151148.56;1750977;81;21221;-68
2022/10/08 06:46:44;;;;;;;22.75;5.22;;;;;;;13.99;78.99;151169.36;1751019;80;21010;-68
2022/10/08 06:49:11;;;;;;;9.98;5.00;;;;;;;14.09;78.86;151192.81;1750984;80;21053;-68
2022/10/08 06:51:38;;;;;;;12.25;4.70;;;;;;;14.18;78.66;151217.53;1750882;80;21034;-69
2022/10/08 06:54:05;;;;;;;12.20;5.28;;;;;;;14.23;78.16;151227.92;1751164;80;21041;-70
2022/10/08 06:56:32;;;;;;;11.68;4.40;;;;;;;14.25;78.22;151234.41;1750869;81;21111;-69
2022/10/08 06:58:59;;;;;;;14.07;5.70;;;;;;;14.31;78.28;151250.05;1751002;81;21515;-69
2022/10/08 07:01:28;;;;;;;16.00;5.60;;;;;;;14.33;78.10;151255.25;1750897;81;21511;-68
2022/10/08 07:03:57;;;;;;;22.55;6.97;;;;;;;14.37;78.03;151263.05;1750855;80;21048;-69
2022/10/08 07:06:24;;;;;;;18.45;5.87;;;;;;;14.44;78.19;151281.25;1751269;80;21080;-69
2022/10/08 07:08:53;;;;;;;13.98;5.03;;;;;;;14.52;78.06;151302.11;1767513;81;21446;-68
2022/10/08 07:11:21;;;;;;;16.60;5.72;;;;;;;14.60;77.87;151322.91;1769259;81;21103;-68
2022/10/08 07:13:48;;;;;;;10.82;5.22;;;;;;;14.68;77.73;151342.44;1769252;81;21024;-68
2022/10/08 07:16:20;;;;;;;15.43;5.83;;;;;;;14.75;77.63;151360.69;1770029;81;21051;-69
2022/10/08 07:18:48;;;;;;;18.32;5.92;;;;;;;14.81;77.19;151373.69;1769297;81;21429;-69
2022/10/08 07:21:17;;;;;;;13.53;5.62;;;;;;;14.86;76.91;151386.75;1769646;80;21186;-69
2022/10/08 07:23:44;;;;;;;15.60;5.87;;;;;;;14.93;76.66;151403.67;1769492;81;21028;-68
2022/10/08 07:26:16;;;;;;;14.53;5.55;;;;;;;15.02;76.57;151427.09;1769735;81;21036;-69
2022/10/08 07:28:55;;;;;;;11.85;4.90;;;;;;;15.13;76.25;151455.70;1770701;80;21032;-67
2022/10/08 07:31:26;;;;;;;11.03;5.17;;;;;;;15.23;76.00;151479.16;1770781;80;21000;-68
2022/10/08 07:33:53;;;;;;;7.97;4.80;;;;;;;15.28;75.77;151493.50;1755746;81;21920;-68
2022/10/08 07:36:21;;;;;;;9.48;4.85;;;;;;;15.35;75.62;151510.38;1755886;80;20965;-69
2022/10/08 07:38:56;;;;;;;7.62;4.92;;;;;;;15.40;75.74;151523.44;1755825;80;21156;-69
2022/10/08 07:41:23;;;;;;;9.38;5.50;;;;;;;15.47;75.72;151541.66;1756343;80;21096;-69
2022/10/08 07:43:53;;;;;;;8.90;5.28;;;;;;;15.50;75.49;151548.19;1755944;80;21432;-69
2022/10/08 07:46:20;;;;;;;10.32;5.40;;;;;;;15.45;75.44;151536.45;1756381;80;21173;-68
2022/10/08 07:48:47;;;;;;;11.18;5.55;;;;;;;15.39;75.82;151519.52;1755819;80;21532;-69
2022/10/08 07:51:16;;;;;;;12.10;5.37;;;;;;;15.32;76.00;151502.58;1755841;81;21068;-69
2022/10/08 07:53:43;;;;;;;9.78;5.70;;;;;;;15.24;76.09;151483.03;1755731;80;21057;-69
2022/10/08 07:56:14;;;;;;;11.10;5.37;;;;;;;15.17;76.54;151466.16;1756252;80;21487;-70
2022/10/08 07:58:41;;;;;;;11.28;5.70;;;;;;;15.14;76.97;151458.34;1755857;81;22646;-69
2022/10/08 08:01:13;;;;;;;10.23;5.50;;;;;;;15.12;77.35;151453.09;1755979;80;21483;-69
2022/10/08 08:03:42;;;;;;;10.70;5.80;;;;;;;15.16;77.64;151463.56;1745670;81;21053;-69
2022/10/08 08:06:15;;;;;;;12.55;5.53;;;;;;;15.22;77.92;151476.56;1756140;80;21687;-69
2022/10/08 08:08:44;;;;;;;;;;;;;;;15.32;77.90;151502.58;1772163;80;21040;-70
2022/10/08 08:11:13;;;;;;;10.20;4.92;;;;;;;15.43;77.77;151531.25;1773714;80;21174;-69
2022/10/08 08:13:40;;;;;;;10.53;4.97;;;;;;;15.52;77.56;151552.06;1773276;80;20960;-69
2022/10/08 08:16:13;;;;;;;10.25;5.58;;;;;;;15.60;77.16;151574.22;1773876;79;21098;-70
2022/10/08 08:18:42;;;;;;;13.98;5.47;;;;;;;15.69;77.02;151596.34;1773178;80;21220;-68
2022/10/08 08:21:18;;;;;;;10.58;5.30;;;;;;;15.82;76.56;151628.91;1773912;80;35969;-69
2022/10/08 08:23:48;;;;;;;13.22;5.85;;;;;;;15.92;76.27;151653.70;1773137;80;21184;-68
2022/10/08 08:26:22;;;;;;;14.13;5.45;;;;;;;16.04;76.24;151685.00;1773605;80;21445;-70
2022/10/08 08:29:00;;;;;;;11.97;5.40;;;;;;;16.20;75.98;151722.77;1772879;80;21011;-69
2022/10/08 08:31:30;;;;;;;9.40;4.92;;;;;;;16.33;75.83;151757.94;1767312;80;21043;-69
2022/10/08 08:34:00;;;;;;;18.05;5.58;;;;;;;16.46;74.86;151789.19;1724815;81;21017;-69
2022/10/08 08:36:31;;;;;;;13.85;5.72;;;;;;;16.56;74.77;151815.27;1724665;81;21270;-63
2022/10/08 08:39:00;;;;;;;13.25;5.47;;;;;;;16.65;73.79;151836.09;1724567;81;21010;-63
2022/10/08 08:41:47;;;;;;;15.83;5.25;;;;;;;16.73;73.57;151856.98;1724336;81;21093;-62
2022/10/08 08:44:44;;;;;;;9.48;6.20;;;;;;;16.82;73.06;151879.14;1724174;81;21048;-62
2022/10/08 08:47:17;;;;;;;10.00;5.20;;;;;;;16.90;72.37;151901.25;1723729;81;21057;-62
2022/10/08 08:50:06;;;;;;;8.05;5.37;;;;;;;17.00;71.88;151926.06;1723898;81;21967;-62
2022/10/08 08:52:38;;;;;;;10.00;4.95;;;;;;;17.10;71.61;151949.56;1723429;83;21077;-62
2022/10/08 08:55:16;;;;;;;9.53;5.30;;;;;;;17.20;70.66;151974.33;1724529;81;21435;-63
2022/10/08 08:57:56;;;;;;;11.00;5.92;;;;;;;17.24;70.54;151984.75;1724509;81;21040;-63
2022/10/08 09:00:30;;;;;;;12.50;5.40;;;;;;;17.29;70.18;151997.78;1676554;83;21085;-63
2022/10/08 09:03:19;;;;;;;16.93;5.55;;;;;;;17.36;69.93;152016.06;1724829;83;21189;-62
2022/10/08 09:05:52;;;;;;;12.85;5.83;;;;;;;17.47;70.71;152044.72;1724780;81;21512;-62
2022/10/08 09:08:50;;;;;;;12.10;6.17;;;;;;;17.55;70.62;152062.97;1759601;80;21051;-62
2022/10/08 09:11:19;;;;;;;20.30;6.35;;;;;;;17.63;72.03;152082.53;1773332;80;21019;-63
2022/10/08 09:14:01;;;;;;;14.83;5.58;;;;;;;17.65;72.07;152087.75;1773555;80;21090;-62
2022/10/08 09:16:28;;;;;;;14.90;5.83;;;;;;;17.67;72.09;152092.95;1773729;80;21208;-63
2022/10/08 09:18:55;;;;;;;12.03;6.20;;;;;;;17.75;71.77;152115.13;1773284;80;21015;-63
2022/10/08 09:21:23;;;;;;;14.15;6.45;;;;;;;17.79;71.87;152122.95;1773178;79;21078;-63
2022/10/08 09:23:49;;;;;;;15.03;6.00;;;;;;;17.82;71.78;152132.09;1773330;80;21063;-63
2022/10/08 09:26:25;;;;;;;12.15;6.60;;;;;;;17.85;71.91;152138.64;1773420;80;21063;-63
2022/10/08 09:28:56;;;;;;;13.43;6.08;;;;;;;17.87;71.64;152143.84;1778431;79;21953;-62
2022/10/08 09:31:38;;;;;;;9.08;6.42;;;;;;;17.83;71.54;152133.42;1784195;80;21027;-62
2022/10/08 09:34:15;;;;;;;10.75;6.80;;;;;;;17.79;71.96;152122.95;1729586;81;21567;-62
2022/10/08 09:36:48;;;;;;;9.73;6.10;;;;;;;17.79;73.06;152122.95;1756389;81;21525;-64
2022/10/08 09:39:27;;;;;;;14.85;6.40;;;;;;;17.80;74.23;152125.61;1727551;81;21195;-62
2022/10/08 09:42:20;;;;;;;11.88;6.58;;;;;;;17.85;74.70;152138.64;1756311;80;21230;-64
2022/10/08 09:44:50;;;;;;;13.88;6.85;;;;;;;17.84;73.82;152136.03;1755694;80;21019;-63
2022/10/08 09:47:20;;;;;;;15.00;6.40;;;;;;;17.83;74.31;152133.42;1756602;81;21048;-63
2022/10/08 09:50:12;;;;;;;11.45;6.12;;;;;;;17.84;74.70;152137.31;1756747;80;21092;-63
2022/10/08 09:52:39;;;;;;;12.13;7.08;;;;;;;17.85;74.91;152138.64;1752182;80;21071;-63
2022/10/08 09:55:20;;;;;;;10.68;6.30;;;;;;;17.84;73.78;152136.03;1756433;81;21933;-63
2022/10/08 09:57:53;;;;;;;13.08;6.40;;;;;;;17.82;73.81;152130.81;1756166;80;20987;-63
2022/10/08 10:00:31;;;;;;;9.20;5.25;;;;;;;17.79;73.71;152124.28;1756363;81;21071;-63
2022/10/08 10:02:59;;;;;;;9.15;5.55;;;;;;;17.80;72.20;152125.61;1756186;81;21079;-63
2022/10/08 10:05:28;;;;;;;8.75;5.42;;;;;;;17.82;72.15;152130.81;1756637;81;20972;-63
2022/10/08 10:07:55;;;;;;;9.63;5.70;;;;;;;17.86;71.32;152141.25;1773329;80;21166;-64
2022/10/08 10:10:41;;;;;;;7.58;5.50;;;;;;;17.91;71.84;152154.28;1755379;80;21079;-62
2022/10/08 10:13:28;;;;;;;8.38;5.10;;;;;;;17.95;71.42;152164.70;1785819;80;21079;-62
2022/10/08 10:16:01;;;;;;;9.43;5.40;;;;;;;18.04;70.60;152188.25;1783680;80;21003;-62
2022/10/08 10:18:58;;;;;;;9.35;4.83;;;;;;;18.14;70.26;152213.03;1785897;80;21473;-62
2022/10/08 10:21:39;;;;;;;11.95;5.03;;;;;;;18.22;68.19;152232.56;1797954;79;21437;-63
2022/10/08 10:24:24;;;;;;;7.10;4.50;;;;;;;18.32;66.96;152258.69;1806134;79;21078;-63
2022/10/08 10:26:51;;;;;;;6.70;4.20;;;;;;;18.47;66.29;152295.23;1791087;80;21433;-62
2022/10/08 10:29:21;;;;;;;7.80;4.28;;;;;;;18.56;65.48;152318.70;1780687;80;21033;-63
2022/10/08 10:31:52;;;;;;;9.90;4.45;;;;;;;18.64;64.60;152338.28;1751609;81;21035;-63
2022/10/08 10:34:31;;;;;;;6.67;4.20;;;;;;;18.71;64.29;152356.53;1717308;83;22256;-63
2022/10/08 10:37:01;;;;;;;10.25;4.45;;;;;;;18.78;63.43;152372.17;1716835;83;21074;-63
2022/10/08 10:39:39;;;;;;;9.05;4.45;;;;;;;18.81;62.58;152381.33;1716385;83;21130;-63
2022/10/08 10:42:45;;;;;;;7.62;4.30;;;;;;;18.81;63.34;152381.33;1716602;82;20960;-62
2022/10/08 10:45:22;;;;;;;7.37;4.20;;;;;;;18.82;62.28;152382.66;1716356;82;21118;-63
2022/10/08 10:47:49;;;;;;;11.57;4.72;;;;;;;18.85;61.94;152391.75;1716241;82;21877;-62
2022/10/08 10:50:24;;;;;;;5.65;4.53;;;;;;;18.88;62.24;152399.59;1717160;83;21050;-63
2022/10/08 10:53:09;;;;;;;5.62;4.85;;;;;;;18.93;60.61;152410.06;1713746;83;21126;-63
2022/10/08 10:56:05;;;;;;;8.95;5.05;;;;;;;18.94;61.09;152412.67;1716485;83;21075;-62
2022/10/08 10:59:05;;;;;;;11.12;4.47;;;;;;;18.99;60.90;152425.77;1717232;82;21089;-63
2022/10/08 11:02:03;;;;;;;8.90;5.15;;;;;;;19.04;60.41;152440.13;1716760;83;20983;-63
2022/10/08 11:05:00;;;;;;;8.53;4.62;;;;;;;19.08;60.35;152449.23;1716762;83;21018;-63
2022/10/08 11:07:51;;;;;;;9.28;4.95;;;;;;;19.13;59.86;152461.00;1716833;82;21023;-62
2022/10/08 11:10:42;;;;;;;9.23;5.10;;;;;;;19.12;59.53;152459.72;1717052;82;21042;-62
2022/10/08 11:13:56;;;;;;;14.85;5.05;;;;;;;19.13;59.70;152462.33;1717458;83;21050;-63
2022/10/08 11:16:38;;;;;;;8.73;4.85;;;;;;;19.11;59.59;152457.06;1717294;82;21883;-63
2022/10/08 11:19:17;;;;;;;11.25;5.08;;;;;;;19.12;58.86;152459.72;1717377;82;20908;-63
2022/10/08 11:22:01;;;;;;;7.47;4.60;;;;;;;19.12;59.17;152459.72;1714133;82;21078;-63
2022/10/08 11:24:53;;;;;;;9.43;4.80;;;;;;;19.13;59.36;152461.00;1716707;82;21094;-63
2022/10/08 11:27:40;;;;;;;8.30;4.58;;;;;;;19.15;59.08;152467.55;1698042;83;21425;-63
2022/10/08 11:30:22;;;;;;;11.08;5.08;;;;;;;19.20;59.73;152477.97;1717004;82;21473;-64
2022/10/08 11:32:52;;;;;;;7.97;4.75;;;;;;;19.23;58.92;152485.80;1727687;82;21010;-63
2022/10/08 11:36:04;;;;;;;10.00;4.70;;;;;;;19.23;59.60;152485.80;1732293;81;21160;-69
2022/10/08 11:38:45;;;;;;;12.95;5.40;;;;;;;19.25;60.26;152492.34;1732115;82;21073;-69
2022/10/08 11:41:20;;;;;;;7.22;4.80;;;;;;;19.26;59.72;152493.63;1727606;82;21806;-67
2022/10/08 11:43:54;;;;;;;9.13;4.70;;;;;;;19.24;59.67;152489.73;1731330;82;21133;-62
2022/10/08 11:46:28;;;;;;;7.65;4.72;;;;;;;19.24;59.82;152488.41;1732338;82;21029;-74
2022/10/08 11:49:24;;;;;;;10.15;4.85;;;;;;;19.24;60.10;152489.73;1732091;82;21029;-68